sensor_id;sensor_type;location;lat;lon;timestamp;temperature;humidity
19799;DHT22;10059;59.850;10.454;2023-08-12T00:00:55;15.60;99.90
19799;DHT22;10059;59.850;10.454;2023-08-12T00:03:22;15.60;99.90
19799;DHT22;10059;59.850;10.454;2023-08-12T00:05:49;15.60;99.90
19799;DHT22;10059;59.850;10.454;2023-08-12T00:08:15;15.50;99.90
19799;DHT22;10059;59.850;10.454;2023-08-12T00:10:42;15.60;99.90
19799;DHT22;10059;59.850;10.454;2023-08-12T00:13:10;15.70;99.90
19799;DHT22;10059;59.850;10.454;2023-08-12T00:15:40;15.60;99.90
19799;DHT22;10059;59.850;10.454;2023-08-12T00:18:07;15.70;99.90
19799;DHT22;10059;59.850;10.454;2023-08-12T00:20:34;15.60;99.90
19799;DHT22;10059;59.850;10.454;2023-08-12T00:23:03;15.70;99.90
19799;DHT22;10059;59.850;10.454;2023-08-12T00:25:30;15.70;99.90
19799;DHT22;10059;59.850;10.454;2023-08-12T00:27:57;15.70;99.90
19799;DHT22;10059;59.850;10.454;2023-08-12T00:30:25;15.60;99.90
19799;DHT22;10059;59.850;10.454;2023-08-12T00:32:52;15.70;99.90
19799;DHT22;10059;59.850;10.454;2023-08-12T00:35:19;15.70;99.90
19799;DHT22;10059;59.850;10.454;2023-08-12T00:37:46;15.80;99.90
19799;DHT22;10059;59.850;10.454;2023-08-12T00:40:13;15.80;99.90
19799;DHT22;10059;59.850;10.454;2023-08-12T00:42:40;15.60;99.90
19799;DHT22;10059;59.850;10.454;2023-08-12T00:45:09;15.50;99.90
19799;DHT22;10059;59.850;10.454;2023-08-12T00:47:40;15.40;99.90
19799;DHT22;10059;59.850;10.454;2023-08-12T00:50:09;15.50;99.90
19799;DHT22;10059;59.850;10.454;2023-08-12T00:52:39;15.60;99.90
19799;DHT22;10059;59.850;10.454;2023-08-12T00:55:07;15.60;99.90
19799;DHT22;10059;59.850;10.454;2023-08-12T00:57:34;15.70;99.90
19799;DHT22;10059;59.850;10.454;2023-08-12T01:00:02;15.70;99.90
19799;DHT22;10059;59.850;10.454;2023-08-12T01:02:29;15.60;99.90
19799;DHT22;10059;59.850;10.454;2023-08-12T01:04:58;15.50;99.90
19799;DHT22;10059;59.850;10.454;2023-08-12T01:07:25;15.60;99.90
19799;DHT22;10059;59.850;10.454;2023-08-12T01:09:52;15.60;99.90
19799;DHT22;10059;59.850;10.454;2023-08-12T01:12:26;15.50;99.90
19799;DHT22;10059;59.850;10.454;2023-08-12T01:14:58;15.60;99.90
19799;DHT22;10059;59.850;10.454;2023-08-12T01:17:26;15.60;99.90
19799;DHT22;10059;59.850;10.454;2023-08-12T01:19:54;15.60;99.90
19799;DHT22;10059;59.850;10.454;2023-08-12T01:22:25;15.70;99.90
19799;DHT22;10059;59.850;10.454;2023-08-12T01:24:55;15.60;99.90
19799;DHT22;10059;59.850;10.454;2023-08-12T01:27:22;15.70;99.90
19799;DHT22;10059;59.850;10.454;2023-08-12T01:29:50;15.80;99.90
19799;DHT22;10059;59.850;10.454;2023-08-12T01:32:23;15.80;99.90
19799;DHT22;10059;59.850;10.454;2023-08-12T01:34:56;15.80;99.90
19799;DHT22;10059;59.850;10.454;2023-08-12T01:37:28;15.70;99.90
19799;DHT22;10059;59.850;10.454;2023-08-12T01:40:00;15.70;99.90
19799;DHT22;10059;59.850;10.454;2023-08-12T01:42:29;15.80;99.90
19799;DHT22;10059;59.850;10.454;2023-08-12T01:44:56;16.00;99.90
19799;DHT22;10059;59.850;10.454;2023-08-12T01:47:23;16.10;99.90
19799;DHT22;10059;59.850;10.454;2023-08-12T01:49:50;15.90;99.90
19799;DHT22;10059;59.850;10.454;2023-08-12T01:52:16;15.90;99.90
19799;DHT22;10059;59.850;10.454;2023-08-12T01:54:43;15.90;99.90
19799;DHT22;10059;59.850;10.454;2023-08-12T01:57:11;15.80;99.90
19799;DHT22;10059;59.850;10.454;2023-08-12T01:59:38;15.70;99.90
19799;DHT22;10059;59.850;10.454;2023-08-12T02:02:05;15.70;99.90
19799;DHT22;10059;59.850;10.454;2023-08-12T02:04:33;15.70;99.90
19799;DHT22;10059;59.850;10.454;2023-08-12T02:07:02;15.70;99.90
19799;DHT22;10059;59.850;10.454;2023-08-12T02:09:29;15.60;99.90
19799;DHT22;10059;59.850;10.454;2023-08-12T02:11:56;15.50;99.90
19799;DHT22;10059;59.850;10.454;2023-08-12T02:14:24;15.40;99.90
19799;DHT22;10059;59.850;10.454;2023-08-12T02:16:51;15.40;99.90
19799;DHT22;10059;59.850;10.454;2023-08-12T02:19:18;15.40;99.90
19799;DHT22;10059;59.850;10.454;2023-08-12T02:21:45;15.40;99.90
19799;DHT22;10059;59.850;10.454;2023-08-12T02:24:11;15.50;99.90
19799;DHT22;10059;59.850;10.454;2023-08-12T02:26:38;15.50;99.90
19799;DHT22;10059;59.850;10.454;2023-08-12T02:29:05;15.60;99.90
19799;DHT22;10059;59.850;10.454;2023-08-12T02:31:33;15.50;99.90
19799;DHT22;10059;59.850;10.454;2023-08-12T02:34:00;15.50;99.90
19799;DHT22;10059;59.850;10.454;2023-08-12T02:36:27;15.40;99.90
19799;DHT22;10059;59.850;10.454;2023-08-12T02:38:54;15.40;99.90
19799;DHT22;10059;59.850;10.454;2023-08-12T02:41:20;15.30;99.90
19799;DHT22;10059;59.850;10.454;2023-08-12T02:43:47;15.30;99.90
19799;DHT22;10059;59.850;10.454;2023-08-12T02:46:14;15.40;99.90
19799;DHT22;10059;59.850;10.454;2023-08-12T02:48:43;15.40;99.90
19799;DHT22;10059;59.850;10.454;2023-08-12T02:51:10;15.50;99.90
19799;DHT22;10059;59.850;10.454;2023-08-12T02:53:37;15.40;99.90
19799;DHT22;10059;59.850;10.454;2023-08-12T02:56:03;15.40;99.90
19799;DHT22;10059;59.850;10.454;2023-08-12T02:58:30;15.30;99.90
19799;DHT22;10059;59.850;10.454;2023-08-12T03:00:57;15.30;99.90
19799;DHT22;10059;59.850;10.454;2023-08-12T03:03:24;15.40;99.90
19799;DHT22;10059;59.850;10.454;2023-08-12T03:05:52;15.30;99.90
19799;DHT22;10059;59.850;10.454;2023-08-12T03:08:19;15.20;99.90
19799;DHT22;10059;59.850;10.454;2023-08-12T03:10:46;15.20;99.90
19799;DHT22;10059;59.850;10.454;2023-08-12T03:13:13;15.20;99.90
19799;DHT22;10059;59.850;10.454;2023-08-12T03:15:39;15.20;99.90
19799;DHT22;10059;59.850;10.454;2023-08-12T03:18:07;15.10;99.90
19799;DHT22;10059;59.850;10.454;2023-08-12T03:20:34;15.10;99.90
19799;DHT22;10059;59.850;10.454;2023-08-12T03:23:02;15.20;99.90
19799;DHT22;10059;59.850;10.454;2023-08-12T03:25:29;15.20;99.90
19799;DHT22;10059;59.850;10.454;2023-08-12T03:27:56;15.20;99.90
19799;DHT22;10059;59.850;10.454;2023-08-12T03:30:23;15.30;99.90
19799;DHT22;10059;59.850;10.454;2023-08-12T03:32:51;15.40;99.90
19799;DHT22;10059;59.850;10.454;2023-08-12T03:35:18;15.40;99.90
19799;DHT22;10059;59.850;10.454;2023-08-12T03:37:45;15.60;99.90
19799;DHT22;10059;59.850;10.454;2023-08-12T03:40:13;15.70;99.90
19799;DHT22;10059;59.850;10.454;2023-08-12T03:42:40;15.70;99.90
19799;DHT22;10059;59.850;10.454;2023-08-12T03:45:08;15.70;99.90
19799;DHT22;10059;59.850;10.454;2023-08-12T03:47:34;15.80;99.90
19799;DHT22;10059;59.850;10.454;2023-08-12T03:50:01;15.60;99.90
19799;DHT22;10059;59.850;10.454;2023-08-12T03:52:28;15.50;99.90
19799;DHT22;10059;59.850;10.454;2023-08-12T03:54:55;15.60;99.90
19799;DHT22;10059;59.850;10.454;2023-08-12T03:57:23;15.60;99.90
19799;DHT22;10059;59.850;10.454;2023-08-12T03:59:50;15.60;99.90
19799;DHT22;10059;59.850;10.454;2023-08-12T04:02:17;15.60;99.90
19799;DHT22;10059;59.850;10.454;2023-08-12T04:04:44;15.60;99.90
19799;DHT22;10059;59.850;10.454;2023-08-12T04:07:10;15.60;99.90
19799;DHT22;10059;59.850;10.454;2023-08-12T04:09:37;15.70;99.90
19799;DHT22;10059;59.850;10.454;2023-08-12T04:12:04;15.70;99.90
19799;DHT22;10059;59.850;10.454;2023-08-12T04:14:33;15.60;99.90
19799;DHT22;10059;59.850;10.454;2023-08-12T04:17:00;15.50;99.90
19799;DHT22;10059;59.850;10.454;2023-08-12T04:19:27;15.50;99.90
19799;DHT22;10059;59.850;10.454;2023-08-12T04:21:53;15.60;99.90
19799;DHT22;10059;59.850;10.454;2023-08-12T04:24:20;15.70;99.90
19799;DHT22;10059;59.850;10.454;2023-08-12T04:26:47;15.60;99.90
19799;DHT22;10059;59.850;10.454;2023-08-12T04:29:14;15.50;99.90
19799;DHT22;10059;59.850;10.454;2023-08-12T04:31:42;15.60;99.90
19799;DHT22;10059;59.850;10.454;2023-08-12T04:34:09;15.50;99.90
19799;DHT22;10059;59.850;10.454;2023-08-12T04:36:36;15.50;99.90
19799;DHT22;10059;59.850;10.454;2023-08-12T04:39:03;15.30;99.90
19799;DHT22;10059;59.850;10.454;2023-08-12T04:41:29;15.40;99.90
19799;DHT22;10059;59.850;10.454;2023-08-12T04:43:56;15.50;99.90
19799;DHT22;10059;59.850;10.454;2023-08-12T04:46:23;15.50;99.90
19799;DHT22;10059;59.850;10.454;2023-08-12T04:48:51;15.50;99.90
19799;DHT22;10059;59.850;10.454;2023-08-12T04:51:18;15.50;99.90
19799;DHT22;10059;59.850;10.454;2023-08-12T04:53:45;15.50;99.90
19799;DHT22;10059;59.850;10.454;2023-08-12T04:56:12;15.50;99.90
19799;DHT22;10059;59.850;10.454;2023-08-12T04:58:39;15.70;99.90
19799;DHT22;10059;59.850;10.454;2023-08-12T05:01:05;15.80;99.90
19799;DHT22;10059;59.850;10.454;2023-08-12T05:03:33;15.80;99.90
19799;DHT22;10059;59.850;10.454;2023-08-12T05:06:01;15.80;99.90
19799;DHT22;10059;59.850;10.454;2023-08-12T05:08:28;15.70;99.90
19799;DHT22;10059;59.850;10.454;2023-08-12T05:10:55;15.70;99.90
19799;DHT22;10059;59.850;10.454;2023-08-12T05:13:22;15.60;99.90
19799;DHT22;10059;59.850;10.454;2023-08-12T05:15:49;15.60;99.90
19799;DHT22;10059;59.850;10.454;2023-08-12T05:18:16;15.60;99.90
19799;DHT22;10059;59.850;10.454;2023-08-12T05:20:43;15.60;99.90
19799;DHT22;10059;59.850;10.454;2023-08-12T05:23:11;15.60;99.90
19799;DHT22;10059;59.850;10.454;2023-08-12T05:25:39;15.50;99.90
19799;DHT22;10059;59.850;10.454;2023-08-12T05:28:06;15.50;99.90
19799;DHT22;10059;59.850;10.454;2023-08-12T05:30:34;15.60;99.90
19799;DHT22;10059;59.850;10.454;2023-08-12T05:33:00;15.70;99.90
19799;DHT22;10059;59.850;10.454;2023-08-12T05:35:28;15.60;99.90
19799;DHT22;10059;59.850;10.454;2023-08-12T05:37:54;15.60;99.90
19799;DHT22;10059;59.850;10.454;2023-08-12T05:40:22;15.60;99.90
19799;DHT22;10059;59.850;10.454;2023-08-12T05:42:49;15.80;99.90
19799;DHT22;10059;59.850;10.454;2023-08-12T05:45:16;15.80;99.90
19799;DHT22;10059;59.850;10.454;2023-08-12T05:47:43;15.70;99.90
19799;DHT22;10059;59.850;10.454;2023-08-12T05:50:10;15.80;99.90
19799;DHT22;10059;59.850;10.454;2023-08-12T05:52:37;15.90;99.90
19799;DHT22;10059;59.850;10.454;2023-08-12T05:55:04;15.90;99.90
19799;DHT22;10059;59.850;10.454;2023-08-12T05:57:33;15.90;99.90
19799;DHT22;10059;59.850;10.454;2023-08-12T05:59:59;16.00;99.90
19799;DHT22;10059;59.850;10.454;2023-08-12T06:02:26;16.00;99.90
19799;DHT22;10059;59.850;10.454;2023-08-12T06:04:53;16.00;99.90
19799;DHT22;10059;59.850;10.454;2023-08-12T06:07:20;16.10;99.90
19799;DHT22;10059;59.850;10.454;2023-08-12T06:09:48;16.00;99.90
19799;DHT22;10059;59.850;10.454;2023-08-12T06:12:15;16.00;99.90
19799;DHT22;10059;59.850;10.454;2023-08-12T06:14:43;16.10;99.90
19799;DHT22;10059;59.850;10.454;2023-08-12T06:17:10;15.90;99.90
19799;DHT22;10059;59.850;10.454;2023-08-12T06:19:37;16.00;99.90
19799;DHT22;10059;59.850;10.454;2023-08-12T06:22:04;16.10;99.90
19799;DHT22;10059;59.850;10.454;2023-08-12T06:24:31;16.20;99.90
19799;DHT22;10059;59.850;10.454;2023-08-12T06:26:57;16.00;99.90
19799;DHT22;10059;59.850;10.454;2023-08-12T06:29:24;16.20;99.90
19799;DHT22;10059;59.850;10.454;2023-08-12T06:31:53;16.20;99.90
19799;DHT22;10059;59.850;10.454;2023-08-12T06:34:20;16.20;99.90
19799;DHT22;10059;59.850;10.454;2023-08-12T06:36:47;16.30;99.90
19799;DHT22;10059;59.850;10.454;2023-08-12T06:39:14;16.20;99.90
19799;DHT22;10059;59.850;10.454;2023-08-12T06:41:41;16.10;99.90
19799;DHT22;10059;59.850;10.454;2023-08-12T06:44:07;16.00;99.90
19799;DHT22;10059;59.850;10.454;2023-08-12T06:46:34;16.00;99.90
19799;DHT22;10059;59.850;10.454;2023-08-12T06:49:02;16.10;99.90
19799;DHT22;10059;59.850;10.454;2023-08-12T06:51:29;16.00;99.90
19799;DHT22;10059;59.850;10.454;2023-08-12T06:53:56;16.00;99.90
19799;DHT22;10059;59.850;10.454;2023-08-12T06:56:23;16.20;99.90
19799;DHT22;10059;59.850;10.454;2023-08-12T06:58:50;16.30;99.90
19799;DHT22;10059;59.850;10.454;2023-08-12T07:01:16;16.20;99.90
19799;DHT22;10059;59.850;10.454;2023-08-12T07:03:43;16.30;99.90
19799;DHT22;10059;59.850;10.454;2023-08-12T07:06:11;16.30;99.90
19799;DHT22;10059;59.850;10.454;2023-08-12T07:08:38;16.40;99.90
19799;DHT22;10059;59.850;10.454;2023-08-12T07:11:05;16.60;99.90
19799;DHT22;10059;59.850;10.454;2023-08-12T07:13:32;16.70;99.90
19799;DHT22;10059;59.850;10.454;2023-08-12T07:15:59;16.60;99.90
19799;DHT22;10059;59.850;10.454;2023-08-12T07:18:26;16.60;99.90
19799;DHT22;10059;59.850;10.454;2023-08-12T07:20:54;16.60;99.90
19799;DHT22;10059;59.850;10.454;2023-08-12T07:23:22;16.70;99.90
19799;DHT22;10059;59.850;10.454;2023-08-12T07:25:49;16.70;99.90
19799;DHT22;10059;59.850;10.454;2023-08-12T07:28:16;16.60;99.90
19799;DHT22;10059;59.850;10.454;2023-08-12T07:30:43;16.70;99.90
19799;DHT22;10059;59.850;10.454;2023-08-12T07:33:09;16.70;99.90
19799;DHT22;10059;59.850;10.454;2023-08-12T07:35:36;16.70;99.90
19799;DHT22;10059;59.850;10.454;2023-08-12T07:38:03;16.80;99.90
19799;DHT22;10059;59.850;10.454;2023-08-12T07:40:32;16.90;99.90
19799;DHT22;10059;59.850;10.454;2023-08-12T07:42:58;16.90;99.90
19799;DHT22;10059;59.850;10.454;2023-08-12T07:45:25;17.00;99.90
19799;DHT22;10059;59.850;10.454;2023-08-12T07:47:52;16.90;99.90
19799;DHT22;10059;59.850;10.454;2023-08-12T07:50:19;17.00;99.90
19799;DHT22;10059;59.850;10.454;2023-08-12T07:52:46;16.90;99.90
19799;DHT22;10059;59.850;10.454;2023-08-12T07:55:13;16.80;99.90
19799;DHT22;10059;59.850;10.454;2023-08-12T07:57:41;16.60;99.90
19799;DHT22;10059;59.850;10.454;2023-08-12T08:00:08;16.70;99.90
19799;DHT22;10059;59.850;10.454;2023-08-12T08:02:37;16.70;99.90
19799;DHT22;10059;59.850;10.454;2023-08-12T08:05:05;16.70;99.90
19799;DHT22;10059;59.850;10.454;2023-08-12T08:07:32;16.80;99.90
19799;DHT22;10059;59.850;10.454;2023-08-12T08:09:59;16.90;99.90
19799;DHT22;10059;59.850;10.454;2023-08-12T08:12:26;17.00;99.90
19799;DHT22;10059;59.850;10.454;2023-08-12T08:14:54;17.10;99.90
19799;DHT22;10059;59.850;10.454;2023-08-12T08:17:21;16.90;99.90
19799;DHT22;10059;59.850;10.454;2023-08-12T08:19:48;16.80;99.90
19799;DHT22;10059;59.850;10.454;2023-08-12T08:22:14;16.80;99.90
19799;DHT22;10059;59.850;10.454;2023-08-12T08:24:41;16.80;99.90
19799;DHT22;10059;59.850;10.454;2023-08-12T08:27:08;16.70;99.90
19799;DHT22;10059;59.850;10.454;2023-08-12T08:29:35;16.60;99.90
19799;DHT22;10059;59.850;10.454;2023-08-12T08:32:03;16.70;99.90
19799;DHT22;10059;59.850;10.454;2023-08-12T08:34:30;16.60;99.90
19799;DHT22;10059;59.850;10.454;2023-08-12T08:36:57;16.80;99.90
19799;DHT22;10059;59.850;10.454;2023-08-12T08:39:24;16.90;99.90
19799;DHT22;10059;59.850;10.454;2023-08-12T08:41:53;17.10;99.90
19799;DHT22;10059;59.850;10.454;2023-08-12T08:44:22;17.30;99.90
19799;DHT22;10059;59.850;10.454;2023-08-12T08:46:52;17.60;99.90
19799;DHT22;10059;59.850;10.454;2023-08-12T08:49:21;18.00;99.90
19799;DHT22;10059;59.850;10.454;2023-08-12T08:51:49;18.20;99.90
19799;DHT22;10059;59.850;10.454;2023-08-12T08:54:17;18.60;99.90
19799;DHT22;10059;59.850;10.454;2023-08-12T08:56:45;19.20;99.90
19799;DHT22;10059;59.850;10.454;2023-08-12T08:59:12;18.90;99.90
19799;DHT22;10059;59.850;10.454;2023-08-12T09:01:40;18.80;99.90
19799;DHT22;10059;59.850;10.454;2023-08-12T09:04:08;19.20;99.90
19799;DHT22;10059;59.850;10.454;2023-08-12T09:06:39;19.70;99.90
19799;DHT22;10059;59.850;10.454;2023-08-12T09:09:10;20.00;99.90
19799;DHT22;10059;59.850;10.454;2023-08-12T09:11:38;20.20;99.90
19799;DHT22;10059;59.850;10.454;2023-08-12T09:14:06;20.30;99.90
19799;DHT22;10059;59.850;10.454;2023-08-12T09:16:34;20.10;99.90
19799;DHT22;10059;59.850;10.454;2023-08-12T09:19:00;20.40;99.90
19799;DHT22;10059;59.850;10.454;2023-08-12T09:21:27;20.30;99.90
19799;DHT22;10059;59.850;10.454;2023-08-12T09:23:56;21.00;99.90
19799;DHT22;10059;59.850;10.454;2023-08-12T09:26:23;21.10;99.90
19799;DHT22;10059;59.850;10.454;2023-08-12T09:28:50;21.10;99.90
19799;DHT22;10059;59.850;10.454;2023-08-12T09:31:23;20.50;99.90
19799;DHT22;10059;59.850;10.454;2023-08-12T09:33:51;20.00;99.90
19799;DHT22;10059;59.850;10.454;2023-08-12T09:36:17;19.70;99.90
19799;DHT22;10059;59.850;10.454;2023-08-12T09:38:44;19.80;99.90
19799;DHT22;10059;59.850;10.454;2023-08-12T09:41:13;19.70;99.90
19799;DHT22;10059;59.850;10.454;2023-08-12T09:43:40;19.80;99.90
19799;DHT22;10059;59.850;10.454;2023-08-12T09:46:10;19.60;99.90
19799;DHT22;10059;59.850;10.454;2023-08-12T09:48:38;19.50;99.90
19799;DHT22;10059;59.850;10.454;2023-08-12T09:51:06;19.50;99.90
19799;DHT22;10059;59.850;10.454;2023-08-12T09:53:33;19.90;99.90
19799;DHT22;10059;59.850;10.454;2023-08-12T09:56:04;19.60;99.90
19799;DHT22;10059;59.850;10.454;2023-08-12T09:58:34;19.60;99.90
19799;DHT22;10059;59.850;10.454;2023-08-12T10:01:02;19.80;99.90
19799;DHT22;10059;59.850;10.454;2023-08-12T10:03:29;19.90;99.90
19799;DHT22;10059;59.850;10.454;2023-08-12T10:05:57;19.90;99.90
19799;DHT22;10059;59.850;10.454;2023-08-12T10:08:26;20.00;99.90
19799;DHT22;10059;59.850;10.454;2023-08-12T10:10:53;19.70;99.90
19799;DHT22;10059;59.850;10.454;2023-08-12T10:13:21;19.70;99.90
19799;DHT22;10059;59.850;10.454;2023-08-12T10:15:49;19.60;99.90
19799;DHT22;10059;59.850;10.454;2023-08-12T10:18:18;19.40;99.90
19799;DHT22;10059;59.850;10.454;2023-08-12T10:20:45;19.30;99.90
19799;DHT22;10059;59.850;10.454;2023-08-12T10:23:15;18.90;99.90
19799;DHT22;10059;59.850;10.454;2023-08-12T10:25:43;19.00;99.90
19799;DHT22;10059;59.850;10.454;2023-08-12T10:28:11;19.10;99.90
19799;DHT22;10059;59.850;10.454;2023-08-12T10:30:39;19.10;99.90
19799;DHT22;10059;59.850;10.454;2023-08-12T10:33:08;19.20;99.90
19799;DHT22;10059;59.850;10.454;2023-08-12T10:35:43;19.10;99.90
19799;DHT22;10059;59.850;10.454;2023-08-12T10:38:11;18.80;99.90
19799;DHT22;10059;59.850;10.454;2023-08-12T10:40:38;19.00;99.90
19799;DHT22;10059;59.850;10.454;2023-08-12T10:43:05;19.00;99.90
19799;DHT22;10059;59.850;10.454;2023-08-12T10:45:47;19.10;99.90
19799;DHT22;10059;59.850;10.454;2023-08-12T10:48:22;19.30;99.90
19799;DHT22;10059;59.850;10.454;2023-08-12T10:50:51;19.20;99.90
19799;DHT22;10059;59.850;10.454;2023-08-12T10:53:26;19.70;99.90
19799;DHT22;10059;59.850;10.454;2023-08-12T10:55:57;20.50;99.90
19799;DHT22;10059;59.850;10.454;2023-08-12T10:58:27;21.50;99.90
19799;DHT22;10059;59.850;10.454;2023-08-12T11:00:54;22.50;99.90
19799;DHT22;10059;59.850;10.454;2023-08-12T11:03:23;22.80;99.90
19799;DHT22;10059;59.850;10.454;2023-08-12T11:05:50;23.00;99.90
19799;DHT22;10059;59.850;10.454;2023-08-12T11:08:24;23.10;99.90
19799;DHT22;10059;59.850;10.454;2023-08-12T11:10:52;23.80;99.90
19799;DHT22;10059;59.850;10.454;2023-08-12T11:13:20;23.60;99.90
19799;DHT22;10059;59.850;10.454;2023-08-12T11:15:47;23.70;99.90
19799;DHT22;10059;59.850;10.454;2023-08-12T11:18:16;23.50;99.90
19799;DHT22;10059;59.850;10.454;2023-08-12T11:20:45;24.00;99.90
19799;DHT22;10059;59.850;10.454;2023-08-12T11:23:13;24.30;99.90
19799;DHT22;10059;59.850;10.454;2023-08-12T11:25:42;24.70;99.90
19799;DHT22;10059;59.850;10.454;2023-08-12T11:28:09;24.70;99.90
19799;DHT22;10059;59.850;10.454;2023-08-12T11:30:36;24.80;99.90
19799;DHT22;10059;59.850;10.454;2023-08-12T11:33:04;25.00;99.90
19799;DHT22;10059;59.850;10.454;2023-08-12T11:35:30;25.00;99.90
19799;DHT22;10059;59.850;10.454;2023-08-12T11:37:59;24.70;99.90
19799;DHT22;10059;59.850;10.454;2023-08-12T11:40:27;24.80;99.90
19799;DHT22;10059;59.850;10.454;2023-08-12T11:42:54;25.00;99.90
19799;DHT22;10059;59.850;10.454;2023-08-12T11:45:22;25.00;99.90
19799;DHT22;10059;59.850;10.454;2023-08-12T11:47:49;25.50;99.90
19799;DHT22;10059;59.850;10.454;2023-08-12T11:50:20;25.20;99.90
19799;DHT22;10059;59.850;10.454;2023-08-12T11:52:47;25.60;99.90
19799;DHT22;10059;59.850;10.454;2023-08-12T11:55:16;25.50;99.90
19799;DHT22;10059;59.850;10.454;2023-08-12T11:57:44;25.10;99.90
19799;DHT22;10059;59.850;10.454;2023-08-12T12:00:12;25.00;99.90
19799;DHT22;10059;59.850;10.454;2023-08-12T12:02:41;24.80;99.90
19799;DHT22;10059;59.850;10.454;2023-08-12T12:05:12;24.70;99.90
19799;DHT22;10059;59.850;10.454;2023-08-12T12:07:39;24.60;99.90
19799;DHT22;10059;59.850;10.454;2023-08-12T12:10:07;24.70;99.90
19799;DHT22;10059;59.850;10.454;2023-08-12T12:12:36;24.40;99.90
19799;DHT22;10059;59.850;10.454;2023-08-12T12:15:04;24.70;99.90
19799;DHT22;10059;59.850;10.454;2023-08-12T12:17:31;24.80;99.90
19799;DHT22;10059;59.850;10.454;2023-08-12T12:20:00;24.50;99.90
19799;DHT22;10059;59.850;10.454;2023-08-12T12:22:28;24.70;99.90
19799;DHT22;10059;59.850;10.454;2023-08-12T12:24:57;24.90;99.90
19799;DHT22;10059;59.850;10.454;2023-08-12T12:27:25;24.70;99.90
19799;DHT22;10059;59.850;10.454;2023-08-12T12:29:54;24.90;99.90
19799;DHT22;10059;59.850;10.454;2023-08-12T12:32:21;25.30;99.90
19799;DHT22;10059;59.850;10.454;2023-08-12T12:34:48;25.50;99.90
19799;DHT22;10059;59.850;10.454;2023-08-12T12:37:15;25.70;99.90
19799;DHT22;10059;59.850;10.454;2023-08-12T12:39:42;25.90;99.90
19799;DHT22;10059;59.850;10.454;2023-08-12T12:42:10;25.10;99.90
19799;DHT22;10059;59.850;10.454;2023-08-12T12:44:37;25.30;99.90
19799;DHT22;10059;59.850;10.454;2023-08-12T12:47:05;24.90;99.90
19799;DHT22;10059;59.850;10.454;2023-08-12T12:49:32;24.30;99.90
19799;DHT22;10059;59.850;10.454;2023-08-12T12:51:59;24.00;99.90
19799;DHT22;10059;59.850;10.454;2023-08-12T12:54:26;24.20;99.90
19799;DHT22;10059;59.850;10.454;2023-08-12T12:56:53;24.30;99.90
19799;DHT22;10059;59.850;10.454;2023-08-12T12:59:19;24.20;99.90
19799;DHT22;10059;59.850;10.454;2023-08-12T13:01:46;24.40;99.90
19799;DHT22;10059;59.850;10.454;2023-08-12T13:04:14;24.60;99.90
19799;DHT22;10059;59.850;10.454;2023-08-12T13:06:41;24.50;99.90
19799;DHT22;10059;59.850;10.454;2023-08-12T13:09:08;24.30;99.90
19799;DHT22;10059;59.850;10.454;2023-08-12T13:11:35;24.20;99.90
19799;DHT22;10059;59.850;10.454;2023-08-12T13:14:02;24.50;99.90
19799;DHT22;10059;59.850;10.454;2023-08-12T13:16:29;24.40;99.90
19799;DHT22;10059;59.850;10.454;2023-08-12T13:18:57;24.40;99.90
19799;DHT22;10059;59.850;10.454;2023-08-12T13:21:26;24.70;99.90
19799;DHT22;10059;59.850;10.454;2023-08-12T13:23:54;24.80;99.90
19799;DHT22;10059;59.850;10.454;2023-08-12T13:26:21;24.70;99.90
19799;DHT22;10059;59.850;10.454;2023-08-12T13:28:48;24.50;99.90
19799;DHT22;10059;59.850;10.454;2023-08-12T13:31:15;24.60;99.90
19799;DHT22;10059;59.850;10.454;2023-08-12T13:33:42;24.60;99.90
19799;DHT22;10059;59.850;10.454;2023-08-12T13:36:09;24.00;99.90
19799;DHT22;10059;59.850;10.454;2023-08-12T13:38:37;23.90;99.90
19799;DHT22;10059;59.850;10.454;2023-08-12T13:41:04;23.60;99.90
19799;DHT22;10059;59.850;10.454;2023-08-12T13:43:31;23.90;99.90
19799;DHT22;10059;59.850;10.454;2023-08-12T13:45:57;24.10;99.90
19799;DHT22;10059;59.850;10.454;2023-08-12T13:48:24;24.10;99.90
19799;DHT22;10059;59.850;10.454;2023-08-12T13:50:51;23.60;99.90
19799;DHT22;10059;59.850;10.454;2023-08-12T13:53:18;23.70;99.90
19799;DHT22;10059;59.850;10.454;2023-08-12T13:55:46;24.00;99.90
19799;DHT22;10059;59.850;10.454;2023-08-12T13:58:13;24.50;99.90
19799;DHT22;10059;59.850;10.454;2023-08-12T14:00:40;24.60;99.90
19799;DHT22;10059;59.850;10.454;2023-08-12T14:03:07;24.80;99.90
19799;DHT22;10059;59.850;10.454;2023-08-12T14:05:34;25.10;99.90
19799;DHT22;10059;59.850;10.454;2023-08-12T14:08:01;25.00;99.90
19799;DHT22;10059;59.850;10.454;2023-08-12T14:10:28;25.10;99.90
19799;DHT22;10059;59.850;10.454;2023-08-12T14:12:56;25.20;99.90
19799;DHT22;10059;59.850;10.454;2023-08-12T14:15:23;25.20;99.90
19799;DHT22;10059;59.850;10.454;2023-08-12T14:17:50;25.30;99.90
19799;DHT22;10059;59.850;10.454;2023-08-12T14:20:17;25.50;99.90
19799;DHT22;10059;59.850;10.454;2023-08-12T14:22:44;25.40;99.90
19799;DHT22;10059;59.850;10.454;2023-08-12T14:25:11;25.10;99.90
19799;DHT22;10059;59.850;10.454;2023-08-12T14:27:37;25.30;99.90
19799;DHT22;10059;59.850;10.454;2023-08-12T14:30:07;25.70;99.90
19799;DHT22;10059;59.850;10.454;2023-08-12T14:32:34;25.30;99.90
19799;DHT22;10059;59.850;10.454;2023-08-12T14:35:01;24.80;99.90
19799;DHT22;10059;59.850;10.454;2023-08-12T14:37:28;24.90;99.90
19799;DHT22;10059;59.850;10.454;2023-08-12T14:39:55;24.90;99.90
19799;DHT22;10059;59.850;10.454;2023-08-12T14:42:21;25.20;99.90
19799;DHT22;10059;59.850;10.454;2023-08-12T14:44:49;25.30;99.90
19799;DHT22;10059;59.850;10.454;2023-08-12T14:47:17;25.80;99.90
19799;DHT22;10059;59.850;10.454;2023-08-12T14:49:44;25.90;99.90
19799;DHT22;10059;59.850;10.454;2023-08-12T14:52:16;26.00;99.90
19799;DHT22;10059;59.850;10.454;2023-08-12T14:54:43;25.80;99.90
19799;DHT22;10059;59.850;10.454;2023-08-12T14:57:10;25.40;99.90
19799;DHT22;10059;59.850;10.454;2023-08-12T14:59:37;25.00;99.90
19799;DHT22;10059;59.850;10.454;2023-08-12T15:02:04;24.70;99.90
19799;DHT22;10059;59.850;10.454;2023-08-12T15:04:32;24.70;99.90
19799;DHT22;10059;59.850;10.454;2023-08-12T15:06:59;24.50;99.90
19799;DHT22;10059;59.850;10.454;2023-08-12T15:09:26;24.40;99.90
19799;DHT22;10059;59.850;10.454;2023-08-12T15:11:52;24.50;99.90
19799;DHT22;10059;59.850;10.454;2023-08-12T15:14:19;24.60;99.90
19799;DHT22;10059;59.850;10.454;2023-08-12T15:16:46;24.20;99.90